Time;durP1;ratioP1;P1;durP2;ratioP2;P2;SDS_P1;SDS_P2;PMS_P1;PMS_P2;Temp;Humidity;BMP_temperature;BMP_pressure;BME280_temperature;BME280_humidity;BME280_pressure;Samples;Min_cycle;Max_cycle;Signal;HPM_P1;HPM_P2
2022/11/30 00:00:01;;;;;;;9.98;3.30;;;8.60;99.90;8.80;99689.00;;;;342703;28;90552;-88
2022/11/30 00:00:14;;;;;;;6.97;3.17;;;8.60;99.90;8.90;99694.00;;;;343063;28;84853;-89
2022/11/30 00:00:26;;;;;;;6.45;3.10;;;8.60;99.90;8.90;99707.00;;;;343888;28;90985;-88
2022/11/30 00:00:38;;;;;;;6.45;2.90;;;8.60;99.90;8.90;99690.00;;;;343157;28;82407;-89
2022/11/30 00:00:50;;;;;;;6.57;2.35;;;8.60;99.90;8.90;99698.00;;;;342608;28;90874;-89
2022/11/30 00:01:10;;;;;;;5.97;2.40;;;8.60;99.90;8.90;99690.00;;;;348625;27;84397;-89
2022/11/30 00:01:23;;;;;;;4.88;2.40;;;8.60;99.90;8.80;99690.00;;;;343980;28;92829;-89
2022/11/30 00:01:35;;;;;;;4.75;2.40;;;8.60;99.90;8.80;99698.00;;;;345936;28;83268;-89
2022/11/30 00:01:46;;;;;;;4.93;2.20;;;8.60;99.90;8.90;99696.00;;;;345624;28;90754;-89
2022/11/30 00:01:58;;;;;;;4.32;2.20;;;8.60;99.90;8.80;99701.00;;;;343010;28;84344;-89
2022/11/30 00:02:10;;;;;;;5.32;2.50;;;8.60;99.90;8.90;99696.00;;;;345373;28;91666;-88
2022/11/30 00:02:23;;;;;;;6.32;2.92;;;8.60;99.90;8.90;99686.00;;;;347227;28;83897;-88
2022/11/30 00:02:35;;;;;;;7.03;2.97;;;8.60;99.90;8.90;99696.00;;;;346906;28;90821;-88
2022/11/30 00:02:52;;;;;;;7.50;2.80;;;8.60;99.90;8.90;99683.00;;;;347209;28;83360;-88
2022/11/30 00:03:04;;;;;;;7.40;2.80;;;8.60;99.90;8.70;99696.00;;;;345493;28;91656;-89
2022/11/30 00:03:16;;;;;;;4.60;2.63;;;8.60;99.90;8.80;99695.00;;;;345713;28;83471;-88
2022/11/30 00:03:28;;;;;;;4.57;2.63;;;8.60;99.90;8.70;99700.00;;;;342622;28;93166;-89
2022/11/30 00:03:40;;;;;;;4.95;3.22;;;8.50;99.90;8.60;99704.00;;;;347257;28;84700;-88
2022/11/30 00:03:56;;;;;;;5.63;3.40;;;8.50;99.90;8.70;99696.00;;;;344261;28;88543;-88
2022/11/30 00:04:08;;;;;;;7.05;3.50;;;8.50;99.90;8.60;99695.00;;;;345673;28;83295;-89
2022/11/30 00:04:19;;;;;;;7.50;3.50;;;8.50;99.90;8.70;99693.00;;;;346753;28;91634;-88
2022/11/30 00:04:31;;;;;;;6.45;3.08;;;8.50;99.90;8.60;99698.00;;;;345922;28;83892;-88
2022/11/30 00:04:43;;;;;;;7.53;3.30;;;8.40;99.90;8.60;99705.00;;;;345410;28;90933;-88
2022/11/30 00:04:55;;;;;;;8.35;3.53;;;8.40;99.90;8.70;99699.00;;;;345762;28;84820;-89
2022/11/30 00:05:07;;;;;;;7.45;3.38;;;8.40;99.90;8.70;99698.00;;;;345300;28;91527;-88
2022/11/30 00:05:19;;;;;;;5.13;3.05;;;8.40;99.90;8.70;99687.00;;;;345746;28;83560;-89
2022/11/30 00:05:31;;;;;;;4.22;3.05;;;8.40;99.90;8.70;99692.00;;;;343971;28;91313;-89
2022/11/30 00:05:43;;;;;;;4.88;3.20;;;8.40;99.90;8.80;99699.00;;;;344303;28;85161;-89
2022/11/30 00:05:55;;;;;;;6.25;3.47;;;8.50;99.90;8.80;99694.00;;;;348305;27;90626;-88
2022/11/30 00:06:10;;;;;;;6.43;3.00;;;8.40;99.90;8.80;99697.00;;;;345871;28;82588;-88
2022/11/30 00:06:22;;;;;;;6.15;2.47;;;8.40;99.90;8.80;99700.00;;;;346887;28;91893;-89
2022/11/30 00:06:34;;;;;;;6.16;2.74;;;8.40;99.90;8.80;99691.00;;;;344587;28;83613;-89
2022/11/30 00:06:46;;;;;;;5.63;3.00;;;8.50;99.90;8.80;99695.00;;;;342684;28;92116;-88
2022/11/30 00:06:58;;;;;;;5.60;3.22;;;8.50;99.90;8.80;99699.00;;;;344494;28;83457;-88
2022/11/30 00:07:09;;;;;;;6.53;3.28;;;8.50;99.90;8.80;99689.00;;;;344138;28;91900;-89
2022/11/30 00:07:21;;;;;;;9.00;3.42;;;8.50;99.90;8.70;99694.00;;;;345742;28;83339;-88
2022/11/30 00:07:33;;;;;;;8.10;3.28;;;8.50;99.90;8.80;99694.00;;;;345168;28;90887;-88
2022/11/30 00:07:46;;;;;;;7.07;3.35;;;8.40;99.90;8.80;99690.00;;;;349999;27;83963;-88
2022/11/30 00:08:00;;;;;;;7.22;3.40;;;8.50;99.90;8.80;99686.00;;;;346916;28;90861;-88
2022/11/30 00:08:12;;;;;;;5.78;3.05;;;8.50;99.90;8.80;99692.00;;;;344231;28;83524;-87
2022/11/30 00:08:28;;;;;;;5.80;3.22;;;8.50;99.90;8.80;99689.00;;;;346788;28;91724;-88
2022/11/30 00:08:40;;;;;;;6.07;3.30;;;8.50;99.90;8.80;99695.00;;;;345798;28;83208;-88
2022/11/30 00:08:55;;;;;;;5.20;3.05;;;8.50;99.90;8.80;99697.00;;;;346715;28;92064;-88
2022/11/30 00:09:07;;;;;;;5.47;3.05;;;8.50;99.90;8.80;99689.00;;;;348591;27;83499;-88
2022/11/30 00:09:19;;;;;;;6.43;3.13;;;8.50;99.90;8.80;99693.00;;;;348284;27;90700;-88
2022/11/30 00:09:31;;;;;;;7.88;3.13;;;8.50;99.90;8.80;99689.00;;;;345736;28;84653;-88
2022/11/30 00:09:43;;;;;;;8.35;2.90;;;8.50;99.90;8.80;99690.00;;;;348094;27;92353;-88
2022/11/30 00:09:55;;;;;;;9.05;2.78;;;8.50;99.90;8.90;99696.00;;;;347301;28;83410;-88
2022/11/30 00:10:07;;;;;;;7.57;3.20;;;8.50;99.90;8.90;99686.00;;;;348280;27;91708;-88
2022/11/30 00:10:21;;;;;;;7.60;3.50;;;8.50;99.90;8.90;99692.00;;;;345832;28;83662;-87
2022/11/30 00:10:32;;;;;;;7.53;3.70;;;8.50;99.90;8.80;99692.00;;;;345419;28;90822;-88
2022/11/30 00:10:44;;;;;;;7.38;3.50;;;8.50;99.90;8.90;99697.00;;;;344328;28;83966;-88
2022/11/30 00:10:56;;;;;;;6.03;3.47;;;8.50;99.90;8.80;99685.00;;;;342730;28;91176;-89
2022/11/30 00:11:13;;;;;;;5.32;3.28;;;8.50;99.90;8.90;99697.00;;;;344524;28;83472;-88
2022/11/30 00:11:26;;;;;;;5.90;3.28;;;8.50;99.90;8.90;99686.00;;;;346955;27;92038;-88
2022/11/30 00:11:38;;;;;;;5.55;2.97;;;8.50;99.90;8.90;99685.00;;;;345713;28;84718;-89
2022/11/30 00:11:49;;;;;;;6.05;2.50;;;8.60;99.90;8.90;99687.00;;;;345380;28;90941;-88
2022/11/30 00:12:01;;;;;;;6.35;2.20;;;8.60;99.90;8.90;99693.00;;;;345823;28;83354;-88
2022/11/30 00:12:13;;;;;;;6.30;2.00;;;8.60;99.90;8.90;99693.00;;;;345459;28;92147;-88
2022/11/30 00:12:25;;;;;;;7.35;3.20;;;8.60;99.90;9.00;99702.00;;;;345860;28;84260;-88
2022/11/30 00:12:37;;;;;;;8.23;3.58;;;8.60;99.90;8.90;99686.00;;;;345442;28;90741;-89
2022/11/30 00:12:49;;;;;;;8.75;3.25;;;8.60;99.90;8.90;99691.00;;;;343019;28;83441;-88
2022/11/30 00:13:00;;;;;;;7.75;3.05;;;8.60;99.90;8.90;99697.00;;;;345540;28;90953;-89
2022/11/30 00:13:12;;;;;;;7.22;2.88;;;8.60;99.90;8.90;99687.00;;;;347209;28;83497;-89
2022/11/30 00:13:24;;;;;;;7.05;2.78;;;8.60;99.90;8.90;99689.00;;;;345457;28;90559;-88
2022/11/30 00:13:36;;;;;;;7.07;2.67;;;8.60;99.90;9.00;99698.00;;;;347158;28;84395;-88
2022/11/30 00:13:48;;;;;;;5.45;3.00;;;8.60;99.90;9.00;99693.00;;;;344038;28;91383;-88
2022/11/30 00:14:00;;;;;;;5.47;2.78;;;8.60;99.90;9.00;99699.00;;;;347095;28;83810;-88
2022/11/30 00:14:11;;;;;;;5.90;3.33;;;8.60;99.90;8.90;99696.00;;;;344041;28;92026;-88
2022/11/30 00:14:23;;;;;;;7.93;3.63;;;8.70;99.90;8.90;99688.00;;;;344420;28;83620;-88
2022/11/30 00:14:35;;;;;;;7.20;3.47;;;8.70;99.90;8.90;99706.00;;;;343992;28;92106;-88
2022/11/30 00:14:47;;;;;;;4.45;2.90;;;8.70;99.90;8.80;99707.00;;;;342978;28;84136;-89
2022/11/30 00:14:59;;;;;;;4.68;2.75;;;8.60;99.90;9.00;99692.00;;;;346950;28;90459;-88
2022/11/30 00:15:13;;;;;;;5.82;2.90;;;8.60;99.90;9.00;99695.00;;;;343006;28;84598;-88
2022/11/30 00:15:24;;;;;;;6.25;3.03;;;8.70;99.90;8.90;99696.00;;;;346701;28;91905;-89
2022/11/30 00:15:36;;;;;;;8.38;3.20;;;8.70;99.90;9.00;99697.00;;;;343101;28;83443;-88
2022/11/30 00:15:48;;;;;;;8.32;3.28;;;8.70;99.90;9.00;99702.00;;;;345175;28;90937;-89
2022/11/30 00:16:00;;;;;;;7.25;3.40;;;8.70;99.90;8.90;99704.00;;;;342850;28;83080;-89
2022/11/30 00:16:12;;;;;;;5.63;2.90;;;8.70;99.90;9.00;99694.00;;;;344106;28;89550;-88
2022/11/30 00:16:26;;;;;;;6.13;3.05;;;8.70;99.90;9.00;99702.00;;;;344534;28;82451;-89
2022/11/30 00:16:38;;;;;;;6.28;2.83;;;8.70;99.90;8.90;99702.00;;;;342665;28;90610;-88
2022/11/30 00:16:49;;;;;;;5.90;2.25;;;8.70;99.90;9.00;99695.00;;;;345871;28;83555;-88
2022/11/30 00:17:01;;;;;;;5.40;2.47;;;8.70;99.90;9.00;99695.00;;;;344177;28;91786;-89
2022/11/30 00:17:14;;;;;;;5.10;2.70;;;8.70;99.90;9.00;99697.00;;;;345847;28;83465;-89
2022/11/30 00:17:26;;;;;;;6.18;3.13;;;8.70;99.90;9.00;99701.00;;;;344046;28;91932;-88
2022/11/30 00:17:38;;;;;;;7.03;3.22;;;8.70;99.90;9.00;99700.00;;;;344459;28;83366;-89
2022/11/30 00:17:54;;;;;;;6.63;3.10;;;8.70;99.90;9.00;99688.00;;;;345162;28;91929;-88
2022/11/30 00:18:06;;;;;;;5.43;2.60;;;8.70;99.90;9.00;99708.00;;;;340335;28;84522;-88
2022/11/30 00:18:18;;;;;;;4.70;2.60;;;8.70;99.90;9.00;99698.00;;;;342774;28;90540;-88
2022/11/30 00:18:30;;;;;;;5.07;3.00;;;8.70;99.90;9.00;99699.00;;;;343104;28;84416;-88
2022/11/30 00:18:42;;;;;;;5.38;3.20;;;8.70;99.90;9.00;99696.00;;;;346788;28;91634;-88
2022/11/30 00:18:53;;;;;;;5.30;2.88;;;8.70;99.90;9.00;99694.00;;;;343219;28;82897;-88
2022/11/30 00:19:05;;;;;;;5.13;2.38;;;8.70;99.90;8.90;99700.00;;;;345603;28;89019;-88
2022/11/30 00:19:17;;;;;;;5.80;2.70;;;8.70;99.90;9.00;99698.00;;;;343076;28;82328;-89
2022/11/30 00:19:29;;;;;;;5.60;2.75;;;8.70;99.90;9.00;99702.00;;;;345366;28;91601;-88
2022/11/30 00:19:41;;;;;;;5.47;2.85;;;8.70;99.90;9.00;99695.00;;;;343142;28;83458;-89
2022/11/30 00:19:53;;;;;;;5.85;2.88;;;8.70;99.90;9.00;99699.00;;;;346796;28;92906;-89
2022/11/30 00:20:06;;;;;;;6.57;3.00;;;8.70;99.90;9.10;99702.00;;;;348488;27;83848;-88
2022/11/30 00:20:18;;;;;;;9.48;3.33;;;8.70;99.90;9.00;99693.00;;;;345443;28;92032;-88
2022/11/30 00:20:30;;;;;;;10.70;3.28;;;8.70;99.90;9.00;99705.00;;;;344457;28;83513;-88
2022/11/30 00:20:42;;;;;;;9.25;3.25;;;8.70;99.90;9.00;99689.00;;;;343999;28;90463;-88
2022/11/30 00:20:56;;;;;;;7.45;3.55;;;8.70;99.90;9.00;99703.00;;;;343203;28;83143;-88
2022/11/30 00:21:10;;;;;;;7.13;3.85;;;8.80;99.90;8.90;99703.00;;;;345502;28;91026;-88
2022/11/30 00:21:22;;;;;;;7.82;3.22;;;8.70;99.90;9.00;99691.00;;;;341693;28;83449;-89
2022/11/30 00:21:33;;;;;;;6.93;2.90;;;8.70;99.90;9.00;99693.00;;;;345587;28;90673;-88
2022/11/30 00:21:45;;;;;;;6.05;2.85;;;8.80;99.90;9.00;99691.00;;;;344364;28;83526;-88
2022/11/30 00:21:57;;;;;;;5.07;2.85;;;8.70;99.90;9.00;99708.00;;;;344000;28;91740;-88
2022/11/30 00:22:09;;;;;;;4.80;2.72;;;8.70;99.90;9.00;99710.00;;;;345741;28;84713;-88
2022/11/30 00:22:21;;;;;;;6.72;2.65;;;8.80;99.90;9.00;99692.00;;;;346767;28;91342;-88
2022/11/30 00:22:33;;;;;;;7.53;2.67;;;8.80;99.90;9.00;99696.00;;;;345837;28;84666;-88
2022/11/30 00:22:44;;;;;;;7.03;2.58;;;8.70;99.90;9.00;99700.00;;;;342636;28;91983;-89
2022/11/30 00:22:56;;;;;;;5.78;2.80;;;8.80;99.90;9.00;99699.00;;;;344495;28;83219;-88
2022/11/30 00:23:08;;;;;;;5.43;2.70;;;8.70;99.90;9.00;99691.00;;;;346830;28;91994;-88
2022/11/30 00:23:20;;;;;;;4.47;2.67;;;8.70;99.90;9.00;99698.00;;;;345690;28;84516;-88
2022/11/30 00:23:33;;;;;;;4.63;2.88;;;8.70;99.90;9.00;99687.00;;;;344102;28;91748;-88
2022/11/30 00:23:46;;;;;;;4.10;2.58;;;8.80;99.90;9.00;99694.00;;;;345868;28;83526;-89
2022/11/30 00:23:57;;;;;;;8.18;2.55;;;8.80;99.90;9.00;99685.00;;;;342523;28;91429;-88
2022/11/30 00:24:09;;;;;;;9.68;2.75;;;8.80;99.90;9.00;99690.00;;;;345690;28;84616;-88
2022/11/30 00:24:21;;;;;;;7.47;3.13;;;8.80;99.90;9.00;99692.00;;;;342650;28;90638;-88
2022/11/30 00:24:33;;;;;;;6.75;3.35;;;8.80;99.90;9.00;99692.00;;;;344474;28;83616;-88
2022/11/30 00:24:45;;;;;;;6.90;3.15;;;8.80;99.90;9.10;99685.00;;;;342545;28;91784;-88
2022/11/30 00:25:02;;;;;;;5.93;2.72;;;8.80;99.90;9.00;99696.00;;;;345679;28;84778;-88
2022/11/30 00:25:14;;;;;;;5.65;2.50;;;8.80;99.90;9.00;99699.00;;;;342637;28;91120;-88
2022/11/30 00:25:25;;;;;;;5.95;2.30;;;8.80;99.90;8.90;99706.00;;;;345774;28;83068;-88
2022/11/30 00:25:38;;;;;;;4.95;2.75;;;8.80;99.90;8.80;99701.00;;;;342518;28;92022;-87
2022/11/30 00:25:50;;;;;;;5.42;3.16;;;8.80;99.90;8.80;99692.00;;;;343130;28;83666;-88
2022/11/30 00:26:06;;;;;;;6.30;3.47;;;8.70;99.90;8.90;99692.00;;;;342621;28;93997;-88
2022/11/30 00:26:19;;;;;;;6.70;2.78;;;8.70;99.90;8.90;99693.00;;;;341697;28;84573;-88
2022/11/30 00:26:31;;;;;;;10.23;3.20;;;8.70;99.90;9.00;99700.00;;;;344060;28;92079;-88
2022/11/30 00:26:43;;;;;;;11.43;3.67;;;8.70;99.90;8.90;99687.00;;;;344358;28;83321;-89
2022/11/30 00:26:54;;;;;;;10.13;3.60;;;8.70;99.90;8.90;99689.00;;;;344107;28;90522;-88
2022/11/30 00:27:06;;;;;;;7.05;3.22;;;8.70;99.90;9.00;99702.00;;;;345915;28;84624;-88
2022/11/30 00:27:18;;;;;;;6.50;2.90;;;8.70;99.90;9.00;99697.00;;;;342571;28;90824;-89
2022/11/30 00:27:31;;;;;;;6.68;2.75;;;8.70;99.90;9.00;99689.00;;;;343075;28;83160;-88
2022/11/30 00:27:43;;;;;;;7.18;3.15;;;8.70;99.90;8.90;99683.00;;;;342696;28;91644;-89
2022/11/30 00:27:54;;;;;;;6.07;3.15;;;8.70;99.90;9.00;99687.00;;;;343189;28;83874;-88
2022/11/30 00:28:06;;;;;;;5.57;2.85;;;8.70;99.90;9.00;99688.00;;;;343773;28;92602;-87
2022/11/30 00:28:18;;;;;;;7.47;3.00;;;8.70;99.90;9.00;99691.00;;;;344436;28;83255;-88
2022/11/30 00:28:31;;;;;;;9.20;3.58;;;8.70;99.90;9.00;99695.00;;;;344047;28;92024;-88
2022/11/30 00:28:44;;;;;;;8.48;3.67;;;8.70;99.90;9.00;99685.00;;;;342883;28;83771;-89
2022/11/30 00:28:56;;;;;;;6.47;3.25;;;8.70;99.90;8.90;99694.00;;;;343811;28;91052;-88
2022/11/30 00:29:08;;;;;;;4.07;2.25;;;8.70;99.90;8.80;99682.00;;;;344428;28;84636;-88
2022/11/30 00:29:20;;;;;;;4.60;2.42;;;8.70;99.90;8.90;99689.00;;;;344097;28;90509;-89
2022/11/30 00:29:31;;;;;;;5.20;2.78;;;8.70;99.90;9.00;99690.00;;;;341756;28;83224;-88
2022/11/30 00:29:43;;;;;;;5.85;2.67;;;8.70;99.90;9.00;99691.00;;;;344092;28;91180;-87
2022/11/30 00:29:55;;;;;;;6.30;2.97;;;8.70;99.90;8.90;99684.00;;;;343168;28;83350;-88
2022/11/30 00:30:08;;;;;;;5.80;3.13;;;8.70;99.90;9.00;99686.00;;;;343897;28;91699;-89
2022/11/30 00:30:20;;;;;;;5.47;3.28;;;8.70;99.90;9.00;99689.00;;;;342971;28;83769;-88
2022/11/30 00:30:32;;;;;;;4.68;3.03;;;8.70;99.90;9.00;99684.00;;;;344112;28;90581;-88
2022/11/30 00:30:44;;;;;;;5.78;3.05;;;8.70;99.90;8.90;99688.00;;;;341612;28;83547;-88
2022/11/30 00:31:00;;;;;;;5.75;2.92;;;8.70;99.90;8.90;99691.00;;;;342828;28;91605;-89
2022/11/30 00:31:14;;;;;;;5.07;3.17;;;8.70;99.90;8.80;99702.00;;;;344314;28;83692;-88
2022/11/30 00:31:26;;;;;;;4.95;3.08;;;8.70;99.90;8.80;99686.00;;;;345415;28;91024;-89
2022/11/30 00:31:37;;;;;;;5.63;3.13;;;8.70;99.90;8.80;99690.00;;;;342985;28;83506;-88
2022/11/30 00:31:49;;;;;;;6.40;3.55;;;8.60;99.90;8.90;99680.00;;;;344111;28;91891;-88
2022/11/30 00:32:01;;;;;;;7.75;4.03;;;8.60;99.90;8.80;99682.00;;;;343071;28;83216;-89
2022/11/30 00:32:13;;;;;;;7.38;3.65;;;8.60;99.90;8.80;99686.00;;;;345485;28;92676;-89
2022/11/30 00:32:28;;;;;;;7.13;3.72;;;8.60;99.90;8.90;99679.00;;;;344416;28;84267;-89
2022/11/30 00:32:40;;;;;;;6.10;3.53;;;8.60;99.90;8.90;99681.00;;;;345433;28;92026;-89
2022/11/30 00:32:56;;;;;;;6.00;3.25;;;8.60;99.90;8.90;99682.00;;;;344470;28;84674;-88
2022/11/30 00:33:08;;;;;;;7.43;3.35;;;8.60;99.90;9.00;99686.00;;;;346616;28;89629;-88
2022/11/30 00:33:20;;;;;;;7.90;3.40;;;8.60;99.90;8.90;99686.00;;;;344469;28;84480;-89
2022/11/30 00:33:32;;;;;;;7.80;3.55;;;8.60;99.90;8.90;99688.00;;;;344058;28;87913;-88
2022/11/30 00:33:44;;;;;;;6.18;3.38;;;8.60;99.90;9.00;99683.00;;;;344504;28;84628;-88
2022/11/30 00:33:56;;;;;;;5.18;3.10;;;8.60;99.90;8.90;99682.00;;;;342791;28;90635;-88
2022/11/30 00:34:08;;;;;;;5.63;3.13;;;8.70;99.90;9.00;99686.00;;;;342982;28;84137;-88
2022/11/30 00:34:20;;;;;;;6.70;2.95;;;8.70;99.90;9.00;99687.00;;;;344006;28;91711;-89
2022/11/30 00:34:32;;;;;;;6.70;2.90;;;8.70;99.90;9.00;99686.00;;;;344371;28;83789;-89
2022/11/30 00:34:43;;;;;;;7.43;2.65;;;8.70;99.90;9.00;99688.00;;;;342754;28;90135;-89
2022/11/30 00:34:56;;;;;;;8.05;3.47;;;8.70;99.90;8.90;99683.00;;;;344574;28;83379;-89
2022/11/30 00:35:08;;;;;;;6.40;3.50;;;8.70;99.90;8.90;99676.00;;;;343882;28;92155;-88
2022/11/30 00:35:19;;;;;;;4.90;3.28;;;8.70;99.90;8.90;99683.00;;;;345782;28;83702;-89
2022/11/30 00:35:31;;;;;;;5.00;2.97;;;8.70;99.90;9.00;99684.00;;;;351080;27;90756;-88
2022/11/30 00:35:43;;;;;;;7.25;2.92;;;8.70;99.90;8.90;99683.00;;;;349878;27;84075;-88
2022/11/30 00:35:59;;;;;;;7.25;2.95;;;8.70;99.90;8.90;99684.00;;;;345222;28;91436;-89
2022/11/30 00:36:16;;;;;;;6.66;3.98;;;8.70;99.90;9.00;99678.00;;;;344303;28;83753;-89
2022/11/30 00:36:28;;;;;;;6.30;3.97;;;8.70;99.90;9.00;99675.00;;;;342761;28;91857;-89
2022/11/30 00:36:40;;;;;;;5.47;3.30;;;8.70;99.90;8.80;99681.00;;;;348583;27;83775;-89
2022/11/30 00:36:52;;;;;;;6.35;3.17;;;8.70;99.90;8.80;99677.00;;;;346908;28;91767;-87
2022/11/30 00:37:04;;;;;;;6.65;3.63;;;8.70;99.90;8.80;99676.00;;;;345696;28;84552;-88
2022/11/30 00:37:16;;;;;;;7.30;4.10;;;8.70;99.90;8.90;99678.00;;;;346894;28;91830;-89
2022/11/30 00:37:28;;;;;;;6.45;3.67;;;8.70;99.90;9.00;99679.00;;;;345745;28;84662;-89
2022/11/30 00:37:40;;;;;;;6.40;3.30;;;8.70;99.90;9.00;99678.00;;;;347027;28;90243;-89
2022/11/30 00:37:51;;;;;;;6.13;3.00;;;8.70;99.90;9.00;99682.00;;;;347136;28;84476;-88
2022/11/30 00:38:03;;;;;;;4.90;3.05;;;8.70;99.90;9.00;99678.00;;;;345519;28;90699;-88
2022/11/30 00:38:15;;;;;;;4.95;3.20;;;8.70;99.90;8.80;99686.00;;;;348616;27;83264;-89
2022/11/30 00:38:27;;;;;;;5.78;3.35;;;8.70;99.90;8.80;99673.00;;;;345442;28;91703;-88
2022/11/30 00:38:39;;;;;;;6.43;3.60;;;8.70;99.90;8.90;99674.00;;;;344438;28;84327;-88
2022/11/30 00:38:51;;;;;;;6.15;3.05;;;8.70;99.90;8.90;99677.00;;;;346750;28;90711;-89
2022/11/30 00:39:03;;;;;;;7.15;3.22;;;8.70;99.90;8.90;99681.00;;;;344668;28;83028;-89
2022/11/30 00:39:15;;;;;;;7.50;3.38;;;8.70;99.90;8.90;99678.00;;;;342671;28;91747;-89
2022/11/30 00:39:26;;;;;;;11.38;4.00;;;8.70;99.90;8.90;99676.00;;;;343066;28;83529;-88
2022/11/30 00:39:46;;;;;;;9.88;3.92;;;8.70;99.90;8.90;99681.00;;;;345451;28;91840;-88
2022/11/30 00:39:57;;;;;;;6.55;3.67;;;8.70;99.90;9.00;99684.00;;;;347237;28;83607;-88
2022/11/30 00:40:10;;;;;;;5.93;3.30;;;8.70;99.90;9.00;99673.00;;;;346834;28;90928;-89
2022/11/30 00:40:22;;;;;;;6.30;3.42;;;8.70;99.90;9.00;99685.00;;;;344358;28;83753;-89
2022/11/30 00:40:33;;;;;;;7.53;3.40;;;8.70;99.90;9.00;99680.00;;;;345232;28;92643;-88
2022/11/30 00:40:45;;;;;;;8.25;3.47;;;8.70;99.90;9.00;99676.00;;;;342753;28;84694;-89
2022/11/30 00:40:57;;;;;;;7.65;3.30;;;8.70;99.90;9.00;99674.00;;;;346836;28;90791;-88
2022/11/30 00:41:09;;;;;;;5.78;2.75;;;8.70;99.90;9.00;99683.00;;;;344518;28;82373;-88
2022/11/30 00:41:21;;;;;;;5.60;3.25;;;8.70;99.90;9.00;99676.00;;;;346698;28;91824;-89
2022/11/30 00:41:33;;;;;;;8.43;3.67;;;8.70;99.90;9.00;99676.00;;;;344435;28;84898;-88
2022/11/30 00:41:45;;;;;;;7.93;3.45;;;8.70;99.90;8.90;99665.00;;;;345464;28;92061;-89
2022/11/30 00:41:57;;;;;;;7.25;3.08;;;8.70;99.90;9.00;99667.00;;;;348507;27;84604;-88
2022/11/30 00:42:08;;;;;;;8.20;3.17;;;8.70;99.90;8.90;99674.00;;;;344117;28;89581;-89
2022/11/30 00:42:21;;;;;;;9.10;3.40;;;8.70;99.90;8.80;99684.00;;;;344424;28;84673;-89
2022/11/30 00:42:33;;;;;;;8.48;4.00;;;8.70;99.90;8.80;99673.00;;;;342598;28;92785;-88
2022/11/30 00:42:45;;;;;;;7.60;4.35;;;8.70;99.90;8.80;99671.00;;;;347161;27;83467;-89
2022/11/30 00:42:57;;;;;;;9.73;4.55;;;8.70;99.90;8.90;99669.00;;;;342674;28;90640;-89
2022/11/30 00:43:09;;;;;;;9.05;4.30;;;8.70;99.90;8.90;99674.00;;;;345811;28;83897;-88
2022/11/30 00:43:21;;;;;;;7.68;3.92;;;8.70;99.90;8.80;99673.00;;;;342594;28;92247;-89
2022/11/30 00:43:33;;;;;;;4.57;3.25;;;8.70;99.90;8.70;99677.00;;;;342936;28;84455;-89
2022/11/30 00:43:45;;;;;;;4.65;3.03;;;8.60;99.90;8.80;99678.00;;;;345459;28;92014;-88
2022/11/30 00:43:57;;;;;;;10.05;3.58;;;8.60;99.90;8.80;99674.00;;;;344250;28;84729;-88
2022/11/30 00:44:09;;;;;;;10.85;4.20;;;8.60;99.90;8.80;99672.00;;;;344061;28;91853;-88
2022/11/30 00:44:20;;;;;;;11.13;4.25;;;8.60;99.90;8.90;99676.00;;;;348451;27;83493;-88
2022/11/30 00:44:32;;;;;;;7.00;3.83;;;8.60;99.90;8.80;99668.00;;;;345325;28;92863;-88
2022/11/30 00:44:44;;;;;;;6.82;3.65;;;8.60;99.90;8.90;99674.00;;;;342951;28;83475;-89
2022/11/30 00:44:56;;;;;;;6.25;3.90;;;8.60;99.90;8.80;99676.00;;;;345551;28;90787;-88
2022/11/30 00:45:09;;;;;;;6.65;4.00;;;8.60;99.90;8.80;99674.00;;;;344243;28;83462;-88
2022/11/30 00:45:20;;;;;;;6.20;3.75;;;8.60;99.90;8.90;99677.00;;;;346576;28;90934;-88
2022/11/30 00:45:32;;;;;;;6.60;3.47;;;8.60;99.90;8.90;99675.00;;;;345768;28;83555;-88
2022/11/30 00:45:44;;;;;;;8.30;4.35;;;8.60;99.90;8.80;99679.00;;;;344157;28;90671;-88
2022/11/30 00:45:56;;;;;;;9.57;4.70;;;8.60;99.90;8.80;99666.00;;;;344351;28;84487;-88
2022/11/30 00:46:08;;;;;;;9.20;4.28;;;8.60;99.90;8.70;99681.00;;;;348173;27;90715;-88
2022/11/30 00:46:20;;;;;;;8.75;4.20;;;8.60;99.90;8.70;99678.00;;;;344414;28;83578;-89
2022/11/30 00:46:32;;;;;;;8.82;4.22;;;8.60;99.90;8.80;99668.00;;;;348101;27;92656;-88
2022/11/30 00:46:44;;;;;;;9.50;4.15;;;8.60;99.90;8.80;99672.00;;;;345727;28;83522;-88
2022/11/30 00:46:55;;;;;;;9.57;4.22;;;8.50;99.90;8.70;99672.00;;;;346809;28;91524;-88
2022/11/30 00:47:07;;;;;;;9.57;4.68;;;8.60;99.90;8.70;99675.00;;;;345795;28;85273;-89
2022/11/30 00:47:19;;;;;;;10.18;5.18;;;8.50;99.90;8.70;99675.00;;;;345312;28;91843;-88
2022/11/30 00:47:31;;;;;;;9.73;4.53;;;8.50;99.90;8.80;99673.00;;;;345714;28;84508;-88
2022/11/30 00:47:43;;;;;;;10.70;4.45;;;8.50;99.90;8.80;99670.00;;;;343959;28;91378;-88
2022/11/30 00:47:54;;;;;;;8.70;4.43;;;8.50;99.90;8.80;99671.00;;;;347146;28;83515;-89
2022/11/30 00:48:06;;;;;;;7.60;4.62;;;8.50;99.90;8.70;99662.00;;;;345414;28;91817;-88
2022/11/30 00:48:18;;;;;;;8.18;4.97;;;8.50;99.90;8.80;99666.00;;;;346912;28;83671;-89
2022/11/30 00:48:30;;;;;;;7.85;4.60;;;8.50;99.90;8.80;99670.00;;;;343998;28;91582;-88
2022/11/30 00:48:42;;;;;;;9.55;4.43;;;8.50;99.90;8.80;99664.00;;;;345750;28;85352;-88
2022/11/30 00:48:53;;;;;;;8.02;3.83;;;8.50;99.90;8.80;99667.00;;;;345413;28;91627;-89
2022/11/30 00:49:05;;;;;;;6.25;4.07;;;8.50;99.90;8.80;99665.00;;;;344395;28;84596;-88
2022/11/30 00:49:17;;;;;;;6.55;4.25;;;8.50;99.90;8.90;99656.00;;;;346830;28;91257;-89
2022/11/30 00:49:29;;;;;;;7.68;4.38;;;8.50;99.90;8.90;99661.00;;;;343056;28;84874;-88
2022/11/30 00:49:41;;;;;;;8.60;4.28;;;8.50;99.90;8.90;99661.00;;;;344106;28;90803;-88
2022/11/30 00:49:53;;;;;;;9.85;4.47;;;8.60;99.90;8.80;99671.00;;;;343018;28;83383;-89
2022/11/30 00:50:05;;;;;;;10.02;4.40;;;8.60;99.90;8.80;99666.00;;;;345435;28;89041;-89
2022/11/30 00:50:17;;;;;;;7.63;3.75;;;8.50;99.90;8.80;99675.00;;;;345710;28;84560;-89
2022/11/30 00:50:29;;;;;;;5.63;3.70;;;8.50;99.90;8.80;99670.00;;;;344002;28;92118;-88
2022/11/30 00:50:41;;;;;;;7.53;4.15;;;8.50;99.90;8.90;99668.00;;;;342997;28;84608;-88
2022/11/30 00:50:52;;;;;;;8.93;4.43;;;8.50;99.90;8.90;99670.00;;;;345375;28;91807;-88
2022/11/30 00:51:05;;;;;;;8.90;4.50;;;8.60;99.90;8.90;99670.00;;;;347187;28;83616;-88
2022/11/30 00:51:18;;;;;;;8.68;4.72;;;8.60;99.90;8.90;99667.00;;;;346854;28;91005;-88
2022/11/30 00:51:29;;;;;;;7.72;4.66;;;8.60;99.90;8.90;99671.00;;;;345810;28;83786;-89
2022/11/30 00:51:41;;;;;;;6.70;4.18;;;8.60;99.90;8.80;99665.00;;;;345415;28;90895;-89
2022/11/30 00:51:53;;;;;;;7.53;4.03;;;8.60;99.90;8.80;99665.00;;;;344300;28;83570;-89
2022/11/30 00:52:05;;;;;;;7.82;4.32;;;8.60;99.90;8.90;99674.00;;;;346756;28;92026;-89
2022/11/30 00:52:17;;;;;;;9.13;4.57;;;8.60;99.90;8.90;99675.00;;;;343115;28;82951;-88
2022/11/30 00:52:29;;;;;;;9.52;4.65;;;8.60;99.90;8.90;99665.00;;;;342648;28;91606;-89
2022/11/30 00:52:41;;;;;;;8.88;4.50;;;8.60;99.90;9.00;99673.00;;;;345680;28;84675;-89
2022/11/30 00:52:53;;;;;;;7.07;4.28;;;8.60;99.90;9.00;99675.00;;;;343960;28;91952;-89
2022/11/30 00:53:04;;;;;;;5.57;4.07;;;8.60;99.90;8.90;99669.00;;;;345760;28;85191;-88
2022/11/30 00:53:17;;;;;;;5.95;3.90;;;8.60;99.90;8.80;99668.00;;;;345477;28;92097;-88
2022/11/30 00:53:29;;;;;;;8.80;4.05;;;8.60;99.90;8.80;99669.00;;;;343006;28;84576;-88
2022/11/30 00:53:41;;;;;;;8.82;4.13;;;8.60;99.90;8.90;99669.00;;;;346852;28;90872;-88
2022/11/30 00:53:53;;;;;;;7.03;4.57;;;8.60;99.90;8.90;99656.00;;;;344390;28;84259;-88
2022/11/30 00:54:04;;;;;;;8.13;4.68;;;8.60;99.90;8.70;99664.00;;;;343970;28;92245;-88
2022/11/30 00:54:16;;;;;;;8.20;4.82;;;8.60;99.90;8.80;99668.00;;;;345768;28;84527;-89
2022/11/30 00:54:28;;;;;;;6.07;4.00;;;8.60;99.90;8.80;99660.00;;;;342519;28;92970;-88
2022/11/30 00:54:40;;;;;;;7.05;3.80;;;8.60;99.90;8.80;99670.00;;;;344291;28;84157;-89
2022/11/30 00:54:52;;;;;;;7.82;4.00;;;8.50;99.90;8.90;99672.00;;;;344060;28;91434;-89
2022/11/30 00:55:04;;;;;;;8.45;4.30;;;8.50;99.90;8.90;99670.00;;;;345855;28;83971;-89
2022/11/30 00:55:16;;;;;;;9.65;4.18;;;8.60;99.90;8.90;99679.00;;;;341412;28;90584;-89
2022/11/30 00:55:30;;;;;;;9.85;4.35;;;8.60;99.90;8.90;99678.00;;;;345716;28;84622;-88
2022/11/30 00:55:43;;;;;;;9.18;4.72;;;8.60;99.90;9.00;99671.00;;;;342616;28;91607;-89
2022/11/30 00:55:54;;;;;;;9.43;4.85;;;8.60;99.90;9.00;99672.00;;;;344531;28;83416;-89
2022/11/30 00:56:07;;;;;;;9.80;4.93;;;8.60;99.90;9.00;99670.00;;;;341049;28;90649;-89
2022/11/30 00:56:19;;;;;;;9.35;4.50;;;8.60;99.90;9.00;99676.00;;;;343011;28;85047;-89